createdAt,value
2023-01-27T00:00:56.462Z,0.28
2023-01-27T00:03:24.498Z,0.31
2023-01-27T00:05:53.361Z,0.36
2023-01-27T00:08:21.107Z,0.41
2023-01-27T00:11:08.629Z,0.36
2023-01-27T00:13:35.333Z,0.36
2023-01-27T00:16:03.013Z,0.36
2023-01-27T00:18:30.658Z,0.32
2023-01-27T00:21:16.939Z,0.30
2023-01-27T00:24:02.550Z,0.29
2023-01-27T00:26:30.184Z,0.29
2023-01-27T00:28:57.783Z,0.30
2023-01-27T00:31:42.837Z,0.30
2023-01-27T00:34:10.454Z,0.30
2023-01-27T00:36:42.342Z,0.36
2023-01-27T00:39:12.148Z,0.31
2023-01-27T00:41:40.404Z,0.31
2023-01-27T00:44:12.595Z,0.29
2023-01-27T00:46:41.185Z,0.27
2023-01-27T00:49:10.445Z,0.28
2023-01-27T00:51:38.276Z,0.29
2023-01-27T00:54:07.298Z,0.29
2023-01-27T00:56:35.655Z,0.30
2023-01-27T00:59:03.433Z,0.39
2023-01-27T01:01:31.684Z,0.40
2023-01-27T01:03:59.331Z,0.39
2023-01-27T01:06:27.571Z,0.35
2023-01-27T01:08:57.361Z,0.30
2023-01-27T01:11:26.872Z,0.31
2023-01-27T01:13:56.269Z,0.32
2023-01-27T01:16:25.545Z,0.36
2023-01-27T01:18:54.084Z,0.34
2023-01-27T01:21:21.913Z,0.36
2023-01-27T01:23:49.634Z,0.36
2023-01-27T01:26:18.565Z,0.29
2023-01-27T01:28:48.472Z,0.26
2023-01-27T01:31:18.565Z,0.28
2023-01-27T01:33:46.687Z,0.24
2023-01-27T01:36:15.632Z,0.21
2023-01-27T01:38:43.660Z,0.23
2023-01-27T01:41:14.533Z,0.25
2023-01-27T01:43:42.289Z,0.24
2023-01-27T01:46:16.434Z,0.24
2023-01-27T01:48:49.383Z,0.25
2023-01-27T01:51:22.249Z,0.34
2023-01-27T01:53:55.957Z,0.35
2023-01-27T01:56:26.875Z,0.30
2023-01-27T01:58:58.707Z,0.27
2023-01-27T02:01:26.297Z,0.31
2023-01-27T02:04:00.105Z,0.29
2023-01-27T02:06:29.325Z,0.30
2023-01-27T02:08:58.677Z,0.31
2023-01-27T02:11:26.295Z,0.33
2023-01-27T02:13:53.991Z,0.33
2023-01-27T02:16:21.589Z,0.30
2023-01-27T02:18:50.078Z,0.29
2023-01-27T02:21:19.424Z,0.25
2023-01-27T02:23:56.442Z,0.25
2023-01-27T02:26:29.665Z,0.27
2023-01-27T02:28:59.250Z,0.31
2023-01-27T02:31:27.379Z,0.37
2023-01-27T02:34:00.872Z,0.34
2023-01-27T02:36:32.530Z,0.32
2023-01-27T02:39:01.897Z,0.30
2023-01-27T02:41:35.687Z,0.29
2023-01-27T02:44:03.627Z,0.25
2023-01-27T02:46:31.305Z,0.25
2023-01-27T02:48:59.147Z,0.25
2023-01-27T02:51:27.056Z,0.33
2023-01-27T02:53:54.847Z,0.36
2023-01-27T02:56:23.413Z,0.33
2023-01-27T02:58:52.361Z,0.33
2023-01-27T03:01:27.426Z,0.29
2023-01-27T03:03:55.107Z,0.30
2023-01-27T03:06:22.735Z,0.30
2023-01-27T03:08:50.306Z,0.32
2023-01-27T03:11:38.567Z,0.29
2023-01-27T03:14:09.904Z,0.33
2023-01-27T03:16:55.312Z,0.37
2023-01-27T03:19:22.899Z,0.32
2023-01-27T03:21:50.981Z,0.37
2023-01-27T03:24:19.032Z,0.40
2023-01-27T03:26:47.577Z,0.34
2023-01-27T03:29:36.175Z,0.36
2023-01-27T03:32:04.023Z,0.40
2023-01-27T03:34:32.702Z,0.35
2023-01-27T03:37:29.137Z,0.39
2023-01-27T03:40:14.785Z,0.38
2023-01-27T03:42:59.805Z,0.39
2023-01-27T03:45:46.635Z,0.41
2023-01-27T03:48:14.725Z,0.43
2023-01-27T03:50:43.811Z,0.36
2023-01-27T03:53:11.853Z,0.36
2023-01-27T03:55:40.047Z,0.40
2023-01-27T03:58:19.476Z,0.39
2023-01-27T04:00:51.804Z,0.39
2023-01-27T04:03:38.327Z,0.39
2023-01-27T04:06:24.654Z,0.37
2023-01-27T04:08:52.215Z,0.35
2023-01-27T04:11:37.222Z,0.36
2023-01-27T04:14:06.511Z,0.37
2023-01-27T04:16:36.582Z,0.35
2023-01-27T04:19:05.290Z,0.34
2023-01-27T04:21:33.724Z,0.23
2023-01-27T04:24:02.167Z,0.15
2023-01-27T04:26:33.168Z,0.11
2023-01-27T04:29:01.785Z,0.08
2023-01-27T04:31:29.446Z,0.07
2023-01-27T04:33:58.314Z,0.09
2023-01-27T04:36:25.941Z,0.08
2023-01-27T04:38:53.713Z,0.07
2023-01-27T04:41:21.265Z,0.09
2023-01-27T04:43:48.853Z,0.07
2023-01-27T04:46:16.521Z,0.08
2023-01-27T04:48:44.102Z,0.14
2023-01-27T04:51:13.055Z,0.17
2023-01-27T04:53:40.683Z,0.16
2023-01-27T04:56:21.601Z,0.19
2023-01-27T04:58:49.232Z,0.19
2023-01-27T05:01:17.140Z,0.24
2023-01-27T05:03:44.803Z,0.30
2023-01-27T05:06:14.557Z,0.29
2023-01-27T05:08:42.310Z,0.33
2023-01-27T05:11:10.178Z,0.40
2023-01-27T05:13:37.822Z,0.40
2023-01-27T05:16:07.755Z,0.36
2023-01-27T05:18:35.527Z,0.39
2023-01-27T05:21:04.205Z,0.39
2023-01-27T05:23:36.018Z,0.39
2023-01-27T05:26:12.361Z,0.37
2023-01-27T05:28:41.560Z,0.41
2023-01-27T05:31:12.418Z,0.39
2023-01-27T05:33:40.226Z,0.38
2023-01-27T05:36:10.054Z,0.39
2023-01-27T05:38:38.956Z,0.45
2023-01-27T05:41:08.402Z,0.44
2023-01-27T05:43:39.610Z,0.46
2023-01-27T05:46:09.015Z,0.48
2023-01-27T05:48:37.460Z,0.51
2023-01-27T05:51:06.293Z,0.60
2023-01-27T05:53:34.927Z,0.63
2023-01-27T05:56:04.913Z,0.65
2023-01-27T05:58:33.438Z,0.60
2023-01-27T06:01:09.178Z,0.56
2023-01-27T06:03:37.145Z,0.56
2023-01-27T06:06:05.327Z,0.54
2023-01-27T06:08:33.206Z,0.58
2023-01-27T06:11:01.092Z,0.60
2023-01-27T06:13:30.602Z,0.60
2023-01-27T06:15:58.194Z,0.58
2023-01-27T06:18:25.744Z,0.59
2023-01-27T06:20:53.293Z,0.60
2023-01-27T06:23:20.839Z,0.57
2023-01-27T06:25:49.978Z,0.54
2023-01-27T06:28:29.199Z,0.51
2023-01-27T06:31:05.974Z,0.56
2023-01-27T06:33:33.724Z,0.53
2023-01-27T06:36:03.425Z,0.58
2023-01-27T06:38:31.177Z,0.59
2023-01-27T06:40:58.803Z,0.59
2023-01-27T06:43:26.552Z,0.61
2023-01-27T06:45:54.561Z,0.62
2023-01-27T06:48:23.532Z,1.91
2023-01-27T06:50:51.359Z,2.20
2023-01-27T06:53:18.913Z,1.78
2023-01-27T06:55:46.532Z,1.62
2023-01-27T06:58:15.714Z,1.53
2023-01-27T07:00:44.478Z,1.47
2023-01-27T07:03:12.799Z,1.35
2023-01-27T07:05:42.823Z,1.28
2023-01-27T07:08:10.387Z,1.15
2023-01-27T07:10:38.984Z,1.13
2023-01-27T07:13:07.439Z,1.02
2023-01-27T07:15:35.656Z,0.98
2023-01-27T07:18:04.447Z,0.95
2023-01-27T07:20:32.882Z,1.06
2023-01-27T07:23:03.173Z,1.00
2023-01-27T07:25:32.575Z,1.00
2023-01-27T07:28:00.534Z,0.95
2023-01-27T07:30:29.274Z,0.93
2023-01-27T07:32:56.829Z,0.89
2023-01-27T07:35:24.612Z,0.91
2023-01-27T07:37:52.256Z,0.92
2023-01-27T07:40:21.459Z,0.92
2023-01-27T07:42:49.067Z,0.88
2023-01-27T07:45:16.960Z,0.90
2023-01-27T07:47:44.505Z,0.87
2023-01-27T07:50:13.330Z,0.88
2023-01-27T07:52:41.209Z,0.86
2023-01-27T07:55:09.460Z,0.91
2023-01-27T07:57:38.314Z,0.94
2023-01-27T08:00:06.844Z,0.96
2023-01-27T08:02:39.769Z,0.95
2023-01-27T08:05:08.084Z,0.96
2023-01-27T08:07:35.791Z,0.94
2023-01-27T08:10:03.477Z,0.92
2023-01-27T08:12:31.132Z,0.92
2023-01-27T08:15:00.051Z,0.94
2023-01-27T08:17:27.646Z,0.93
2023-01-27T08:19:55.259Z,0.94
2023-01-27T08:22:22.800Z,0.97
2023-01-27T08:24:50.789Z,0.99
2023-01-27T08:27:18.669Z,1.02
2023-01-27T08:29:46.303Z,1.11
2023-01-27T08:32:15.566Z,1.10
2023-01-27T08:34:43.322Z,1.14
2023-01-27T08:37:10.853Z,1.17
2023-01-27T08:39:38.451Z,1.22
2023-01-27T08:42:06.161Z,1.22
2023-01-27T08:44:33.694Z,1.18
2023-01-27T08:47:01.204Z,1.25
2023-01-27T08:49:30.091Z,1.26
2023-01-27T08:51:57.660Z,1.32
2023-01-27T08:54:25.199Z,1.29
2023-01-27T08:56:52.895Z,1.37
2023-01-27T08:59:20.413Z,1.38
2023-01-27T09:01:48.014Z,1.47
2023-01-27T09:04:15.619Z,1.54
2023-01-27T09:06:45.126Z,1.61
2023-01-27T09:09:12.651Z,1.79
2023-01-27T09:11:42.649Z,1.85
2023-01-27T09:14:10.611Z,1.92
2023-01-27T09:16:38.558Z,1.97
2023-01-27T09:19:06.234Z,1.98
2023-01-27T09:21:34.115Z,1.97
2023-01-27T09:24:03.055Z,2.02
2023-01-27T09:26:30.642Z,2.05
2023-01-27T09:28:58.458Z,2.13
2023-01-27T09:31:26.129Z,2.12
2023-01-27T09:33:53.746Z,2.03
2023-01-27T09:36:22.532Z,2.05
2023-01-27T09:38:55.397Z,2.12
2023-01-27T09:41:40.032Z,2.26
2023-01-27T09:44:28.924Z,2.23
2023-01-27T09:47:13.605Z,2.25
2023-01-27T09:49:58.802Z,2.33
2023-01-27T09:52:57.748Z,2.32
2023-01-27T09:55:40.118Z,2.33
2023-01-27T09:58:17.703Z,2.28
2023-01-27T10:00:57.342Z,2.09
2023-01-27T10:03:43.290Z,2.13
2023-01-27T10:06:26.084Z,2.17
2023-01-27T10:09:12.135Z,2.10
2023-01-27T10:11:45.992Z,2.18
2023-01-27T10:14:26.023Z,2.24
2023-01-27T10:17:05.124Z,2.45
2023-01-27T10:19:47.128Z,2.51
2023-01-27T10:22:20.895Z,2.51
2023-01-27T10:25:06.588Z,2.49
2023-01-27T10:27:38.033Z,2.49
2023-01-27T10:30:15.130Z,2.49
2023-01-27T10:32:45.968Z,2.44
2023-01-27T10:35:19.269Z,2.43
2023-01-27T10:37:53.017Z,2.46
2023-01-27T10:40:29.750Z,2.43
2023-01-27T10:43:05.501Z,2.52
2023-01-27T10:45:39.636Z,2.48
2023-01-27T10:48:23.271Z,2.46
2023-01-27T10:50:56.010Z,2.43
2023-01-27T10:53:29.911Z,2.33
2023-01-27T10:56:02.094Z,2.39
2023-01-27T10:58:46.961Z,2.38
2023-01-27T11:01:21.718Z,2.36
2023-01-27T11:03:56.788Z,2.37
2023-01-27T11:06:26.665Z,2.33
2023-01-27T11:09:02.976Z,2.40
2023-01-27T11:11:46.404Z,2.39
2023-01-27T11:14:22.585Z,2.53
2023-01-27T11:16:53.484Z,2.45
2023-01-27T11:19:31.740Z,2.45
2023-01-27T11:22:09.096Z,2.35
2023-01-27T11:24:45.479Z,2.44
2023-01-27T11:27:23.520Z,2.45
2023-01-27T11:29:59.205Z,2.42
2023-01-27T11:32:43.839Z,2.43
2023-01-27T11:35:13.371Z,2.43
2023-01-27T11:37:42.977Z,2.42
2023-01-27T11:40:17.907Z,2.51
2023-01-27T11:42:45.869Z,2.55
2023-01-27T11:45:16.618Z,2.65
2023-01-27T11:47:48.663Z,2.75
2023-01-27T11:50:18.716Z,2.77
2023-01-27T11:52:49.103Z,2.90
2023-01-27T11:55:20.041Z,2.87
2023-01-27T11:57:52.282Z,2.83
2023-01-27T12:00:24.902Z,2.91
2023-01-27T12:03:01.929Z,2.94
2023-01-27T12:05:34.562Z,3.01
2023-01-27T12:08:04.210Z,3.02
2023-01-27T12:10:33.857Z,3.01
2023-01-27T12:13:08.276Z,3.11
2023-01-27T12:15:37.466Z,3.07
2023-01-27T12:18:15.003Z,2.97
2023-01-27T12:20:45.897Z,2.92
2023-01-27T12:23:22.554Z,3.40
2023-01-27T12:25:54.913Z,3.78
2023-01-27T12:28:33.100Z,4.45
2023-01-27T12:31:06.854Z,4.69
2023-01-27T12:33:38.484Z,4.32
2023-01-27T12:36:13.417Z,4.00
2023-01-27T12:38:46.537Z,3.77
2023-01-27T12:41:23.388Z,3.66
2023-01-27T12:43:52.374Z,3.54
2023-01-27T12:46:23.177Z,3.49
2023-01-27T12:48:54.209Z,3.41
2023-01-27T12:51:23.602Z,4.22
2023-01-27T12:53:52.129Z,4.33
2023-01-27T12:56:23.214Z,4.39
2023-01-27T12:58:58.294Z,4.54
2023-01-27T13:01:30.095Z,4.31
2023-01-27T13:04:01.904Z,4.12
2023-01-27T13:06:42.130Z,3.91
2023-01-27T13:09:24.629Z,3.74
2023-01-27T13:11:53.267Z,3.63
2023-01-27T13:14:21.202Z,3.60
2023-01-27T13:16:53.086Z,3.50
2023-01-27T13:19:29.949Z,3.55
2023-01-27T13:21:58.128Z,3.45
2023-01-27T13:24:34.365Z,3.35
2023-01-27T13:27:03.446Z,3.28
2023-01-27T13:29:35.723Z,3.22
2023-01-27T13:32:10.103Z,3.20
2023-01-27T13:34:44.956Z,3.10
2023-01-27T13:37:17.470Z,3.85
2023-01-27T13:39:57.184Z,4.10
2023-01-27T13:42:30.111Z,4.19
2023-01-27T13:45:02.180Z,3.98
2023-01-27T13:47:36.835Z,3.84
2023-01-27T13:50:17.395Z,3.64
2023-01-27T13:52:46.395Z,3.56
2023-01-27T13:55:15.763Z,3.45
2023-01-27T13:57:59.053Z,3.42
2023-01-27T14:00:36.408Z,3.37
2023-01-27T14:03:42.016Z,3.26
2023-01-27T14:06:25.550Z,3.20
2023-01-27T14:09:32.321Z,3.20
2023-01-27T14:12:08.338Z,3.18
2023-01-27T14:14:57.748Z,3.12
2023-01-27T14:17:38.888Z,3.08
2023-01-27T14:20:26.279Z,3.08
2023-01-27T14:23:05.712Z,3.10
2023-01-27T14:25:42.079Z,3.22
2023-01-27T14:28:15.295Z,3.09
2023-01-27T14:30:45.327Z,3.15
2023-01-27T14:33:21.965Z,3.10
2023-01-27T14:35:54.208Z,3.08
2023-01-27T14:38:31.166Z,3.00
2023-01-27T14:41:15.438Z,2.90
2023-01-27T14:43:48.805Z,2.94
2023-01-27T14:46:20.608Z,2.98
2023-01-27T14:49:02.361Z,2.99
2023-01-27T14:51:39.537Z,3.02
2023-01-27T14:54:24.277Z,2.92
2023-01-27T14:57:07.430Z,2.91
2023-01-27T14:59:45.629Z,2.84
2023-01-27T15:02:31.791Z,2.77
2023-01-27T15:05:09.450Z,2.84
2023-01-27T15:07:47.480Z,2.84
2023-01-27T15:10:26.920Z,2.79
2023-01-27T15:13:37.235Z,2.81
2023-01-27T15:16:22.752Z,2.89
2023-01-27T15:19:11.723Z,2.93
2023-01-27T15:21:56.995Z,2.96
2023-01-27T15:24:40.699Z,2.88
2023-01-27T15:27:10.390Z,2.86
2023-01-27T15:29:38.730Z,3.07
2023-01-27T15:32:14.851Z,2.96
2023-01-27T15:34:44.442Z,2.94
2023-01-27T15:37:20.471Z,2.87
2023-01-27T15:40:04.382Z,2.84
2023-01-27T15:45:30.703Z,2.78
2023-01-27T15:48:01.299Z,2.76
2023-01-27T15:50:32.165Z,2.74
2023-01-27T15:53:06.912Z,2.67
2023-01-27T15:55:38.393Z,2.71
2023-01-27T15:58:22.180Z,2.69
2023-01-27T16:00:53.185Z,2.65
2023-01-27T16:03:26.746Z,2.64
2023-01-27T16:05:57.573Z,3.13
2023-01-27T16:08:30.650Z,2.94
2023-01-27T16:11:39.059Z,2.86
2023-01-27T16:14:40.707Z,2.74
2023-01-27T16:17:24.832Z,2.63
2023-01-27T16:20:23.363Z,2.60
2023-01-27T16:22:58.653Z,2.58
2023-01-27T16:25:32.207Z,2.54
2023-01-27T16:28:04.620Z,2.53
2023-01-27T16:30:36.381Z,2.52
2023-01-27T16:33:08.523Z,2.49
2023-01-27T16:35:45.038Z,2.44
2023-01-27T16:38:23.325Z,2.42
2023-01-27T16:40:54.953Z,2.45
2023-01-27T16:43:26.482Z,2.48
2023-01-27T16:45:56.628Z,2.43
2023-01-27T16:48:30.521Z,2.42
2023-01-27T16:51:19.572Z,2.37
2023-01-27T16:53:51.635Z,2.34
2023-01-27T16:56:25.888Z,2.29
2023-01-27T16:59:03.880Z,2.26
2023-01-27T17:01:42.049Z,2.28
2023-01-27T17:04:20.330Z,2.26
2023-01-27T17:06:49.676Z,2.25
2023-01-27T17:09:22.768Z,2.25
2023-01-27T17:11:50.578Z,2.23
2023-01-27T17:14:30.027Z,2.22
2023-01-27T17:17:00.811Z,2.21
2023-01-27T17:19:32.333Z,2.19
2023-01-27T17:22:02.230Z,2.20
2023-01-27T17:24:32.226Z,2.14
2023-01-27T17:27:03.978Z,2.10
2023-01-27T17:29:36.182Z,2.07
2023-01-27T17:32:05.367Z,2.08
2023-01-27T17:34:34.510Z,2.06
2023-01-27T17:37:14.819Z,2.09
2023-01-27T17:39:42.749Z,2.04
2023-01-27T17:42:16.706Z,2.06
2023-01-27T17:44:44.511Z,2.07
2023-01-27T17:47:14.903Z,2.02
2023-01-27T17:49:44.986Z,2.02
2023-01-27T17:52:18.700Z,1.96
2023-01-27T17:54:47.344Z,1.95
2023-01-27T17:57:21.499Z,1.98
2023-01-27T17:59:58.948Z,1.95
2023-01-27T18:02:29.715Z,1.94
2023-01-27T18:05:02.176Z,1.96
2023-01-27T18:07:30.523Z,1.97
2023-01-27T18:09:58.325Z,1.99
2023-01-27T18:12:31.671Z,1.94
2023-01-27T18:14:59.166Z,1.95
2023-01-27T18:17:27.861Z,1.96
2023-01-27T18:19:57.201Z,1.94
2023-01-27T18:22:27.038Z,1.92
2023-01-27T18:24:57.042Z,1.95
2023-01-27T18:27:29.813Z,1.93
2023-01-27T18:30:01.956Z,1.91
2023-01-27T18:32:40.136Z,1.89
2023-01-27T18:35:24.695Z,1.90
2023-01-27T18:37:56.226Z,1.87
2023-01-27T18:40:28.655Z,1.83
2023-01-27T18:42:57.696Z,1.82
2023-01-27T18:45:26.325Z,1.81
2023-01-27T18:47:53.949Z,1.77
2023-01-27T18:50:23.332Z,1.73
2023-01-27T18:52:51.901Z,1.76
2023-01-27T18:55:22.544Z,1.75
2023-01-27T18:57:53.625Z,1.75
2023-01-27T19:00:23.098Z,1.75
2023-01-27T19:02:52.888Z,1.76
2023-01-27T19:05:22.723Z,1.74
2023-01-27T19:07:50.890Z,1.75
2023-01-27T19:10:24.760Z,1.74
2023-01-27T19:12:54.197Z,1.74
2023-01-27T19:15:23.882Z,1.68
2023-01-27T19:17:52.802Z,1.66
2023-01-27T19:20:22.391Z,1.65
2023-01-27T19:22:51.648Z,1.67
2023-01-27T19:25:21.722Z,1.67
2023-01-27T19:27:52.014Z,1.72
2023-01-27T19:30:27.362Z,1.75
2023-01-27T19:32:56.100Z,1.76
2023-01-27T19:35:25.045Z,1.81
2023-01-27T19:37:56.060Z,1.83
2023-01-27T19:40:26.612Z,1.85
2023-01-27T19:42:54.333Z,1.90
2023-01-27T19:45:23.085Z,1.92
2023-01-27T19:47:50.919Z,1.87
2023-01-27T19:50:22.848Z,1.88
2023-01-27T19:52:50.722Z,1.83
2023-01-27T19:55:21.293Z,1.79
2023-01-27T19:57:52.631Z,1.76
2023-01-27T20:00:26.689Z,1.81
2023-01-27T20:02:54.856Z,1.83
2023-01-27T20:05:22.807Z,1.75
2023-01-27T20:07:51.562Z,1.75
2023-01-27T20:10:22.162Z,1.75
2023-01-27T20:12:56.247Z,1.71
2023-01-27T20:15:25.157Z,1.70
2023-01-27T20:17:53.896Z,1.72
2023-01-27T20:20:21.923Z,1.66
2023-01-27T20:22:50.389Z,1.68
2023-01-27T20:25:19.741Z,1.71
2023-01-27T20:27:49.800Z,1.73
2023-01-27T20:30:19.709Z,1.76
2023-01-27T20:32:47.965Z,1.77
2023-01-27T20:35:17.373Z,1.81
2023-01-27T20:37:47.233Z,1.79
2023-01-27T20:40:17.207Z,1.93
2023-01-27T20:42:44.892Z,2.07
2023-01-27T20:45:13.948Z,2.13
2023-01-27T20:47:43.215Z,2.11
2023-01-27T20:50:11.937Z,2.13
2023-01-27T20:52:40.008Z,2.07
2023-01-27T20:55:09.443Z,1.97
2023-01-27T20:57:37.092Z,1.95
2023-01-27T21:00:05.041Z,1.91
2023-01-27T21:02:32.670Z,1.89
2023-01-27T21:05:01.655Z,1.86
2023-01-27T21:07:29.553Z,1.78
2023-01-27T21:09:57.170Z,1.73
2023-01-27T21:12:25.630Z,1.73
2023-01-27T21:14:53.442Z,1.71
2023-01-27T21:17:21.002Z,1.67
2023-01-27T21:19:48.620Z,1.65
2023-01-27T21:22:17.565Z,1.73
2023-01-27T21:24:45.149Z,1.89
2023-01-27T21:27:12.890Z,1.92
2023-01-27T21:29:42.296Z,1.89
2023-01-27T21:32:09.898Z,1.88
2023-01-27T21:34:37.525Z,1.86
2023-01-27T21:37:05.042Z,1.86
2023-01-27T21:39:33.983Z,1.88
2023-01-27T21:42:19.256Z,1.85
2023-01-27T21:45:16.854Z,1.82
2023-01-27T21:47:44.744Z,1.84
2023-01-27T21:50:14.458Z,1.83
2023-01-27T21:52:44.927Z,1.80
2023-01-27T21:55:16.786Z,1.79
2023-01-27T21:57:45.793Z,1.81
2023-01-27T22:00:15.074Z,1.79
2023-01-27T22:02:43.709Z,1.76
2023-01-27T22:05:13.000Z,1.78
2023-01-27T22:07:41.959Z,1.80
2023-01-27T22:10:16.728Z,1.84
2023-01-27T22:12:44.416Z,1.79
2023-01-27T22:15:13.851Z,1.81
2023-01-27T22:17:42.235Z,1.80
2023-01-27T22:20:13.684Z,1.94
2023-01-27T22:22:41.264Z,2.05
2023-01-27T22:25:10.157Z,2.03
2023-01-27T22:27:41.241Z,2.05
2023-01-27T22:30:10.484Z,2.02
2023-01-27T22:32:38.098Z,2.03
2023-01-27T22:35:06.802Z,2.05
2023-01-27T22:37:34.919Z,2.04
2023-01-27T22:40:02.689Z,2.05
2023-01-27T22:42:30.323Z,2.10
2023-01-27T22:44:59.331Z,2.10
2023-01-27T22:47:26.946Z,2.12
2023-01-27T22:49:54.557Z,2.10
2023-01-27T22:52:22.108Z,2.11
2023-01-27T22:54:49.675Z,2.08
2023-01-27T22:57:17.592Z,2.07
2023-01-27T22:59:45.191Z,2.08
2023-01-27T23:02:14.119Z,2.09
2023-01-27T23:04:41.687Z,2.09
2023-01-27T23:07:09.246Z,2.10
2023-01-27T23:09:36.780Z,2.09
2023-01-27T23:12:04.616Z,2.08
2023-01-27T23:14:32.160Z,2.11
2023-01-27T23:16:59.764Z,2.09
2023-01-27T23:19:29.094Z,2.07
2023-01-27T23:21:56.696Z,2.07
2023-01-27T23:24:24.252Z,2.10
2023-01-27T23:26:51.901Z,2.10
2023-01-27T23:29:24.730Z,2.09
2023-01-27T23:31:53.600Z,2.09
2023-01-27T23:34:21.589Z,2.11
2023-01-27T23:36:50.687Z,2.09
2023-01-27T23:39:18.306Z,2.08
2023-01-27T23:41:45.982Z,2.11
2023-01-27T23:44:13.882Z,2.15
2023-01-27T23:46:43.177Z,2.18
2023-01-27T23:49:11.542Z,2.19
2023-01-27T23:51:39.096Z,2.20
2023-01-27T23:54:08.071Z,2.18
2023-01-27T23:56:35.620Z,2.14
2023-01-27T23:59:03.207Z,2.18
